Time;durP1;ratioP1;P1;durP2;ratioP2;P2;SDS_P1;SDS_P2;PMS_P1;PMS_P2;Temp;Humidity;BMP_temperature;BMP_pressure;BME280_temperature;BME280_humidity;BME280_pressure;Samples;Min_cycle;Max_cycle;Signal;HPM_P1;HPM_P2
2022/03/27 00:02:06;;;;;;;;;;;;;;;;;;5008748;28;19925;-66
2022/03/27 00:04:32;;;;;;;;;;;;;;;;;;5011551;28;19936;-64
2022/03/27 00:06:59;;;;;;;;;;;;;;;;;;5013209;28;19933;-65
2022/03/27 00:09:27;;;;;;;;;;;;;;;;;;5011681;28;19925;-66
2022/03/27 00:11:53;;;;;;;;;;;;;;;;;;5010158;28;20175;-66
2022/03/27 00:14:21;;;;;;;;;;;;;;;;;;5010342;28;19944;-69
2022/03/27 00:16:47;;;;;;;;;;;;;;;;;;5008009;28;20469;-66
2022/03/27 00:19:16;;;;;;;;;;;;;;;;;;5014882;28;20256;-68
2022/03/27 00:21:44;;;;;;;;;;;;;;;;;;5008826;28;19936;-67
2022/03/27 00:24:10;;;;;;;;;;;;;;;;;;5013860;28;20023;-64
2022/03/27 00:26:36;;;;;;;;;;;;;;;;;;5001460;28;19930;-62
2022/03/27 00:29:02;;;;;;;;;;;;;;;;;;4668669;28;9999970;-63
2022/03/27 00:31:35;;;;;;;;;;;;;;;;;;4999974;28;19936;-63
2022/03/27 00:34:05;;;;;;;;;;;;;;;;;;5009131;28;19948;-61
2022/03/27 00:36:36;;;;;;;;;;;;;;;;;;5009276;28;19932;-61
2022/03/27 00:39:02;;;;;;;;;;;;;;;;;;5021262;28;19925;-60
2022/03/27 00:41:30;;;;;;;;;;;;;;;;;;5006050;28;19937;-61
2022/03/27 00:43:57;;;;;;;;;;;;;;;;;;5013996;28;19926;-60
2022/03/27 00:46:23;;;;;;;;;;;;;;;;;;5012490;28;19926;-59
2022/03/27 00:48:49;;;;;;;;;;;;;;;;;;5015018;28;20062;-60
2022/03/27 00:51:16;;;;;;;;;;;;;;;;;;5019508;23;19930;-58
2022/03/27 00:53:42;;;;;;;;;;;;;;;;;;4995523;28;19970;-60
2022/03/27 00:56:08;;;;;;;;;;;;;;;;;;4991889;28;19926;-58
2022/03/27 00:58:34;;;;;;;;;;;;;;;;;;4998763;28;20029;-61
2022/03/27 01:01:01;;;;;;;;;;;;;;;;;;4991925;28;19925;-60
2022/03/27 01:03:27;;;;;;;;;;;;;;;;;;4992548;28;19937;-60
2022/03/27 01:05:53;;;;;;;;;;;;;;;;;;4995876;28;19952;-60
2022/03/27 01:09:35;;;;;;;;;;;;;;;;;;4992448;28;19926;-61
2022/03/27 01:11:06;;;;;;;;;;;;;;;;;;4992413;28;20052;-61
2022/03/27 01:13:35;;;;;;;;;;;;;;;;;;4992151;28;19922;-64
2022/03/27 01:16:02;;;;;;;;;;;;;;;;;;4990651;28;20164;-65
2022/03/27 01:18:28;;;;;;;;;;;;;;;;;;4996286;28;21365;-64
2022/03/27 01:20:54;;;;;;;;;;;;;;;;;;4987048;28;20375;-62
2022/03/27 01:23:21;;;;;;;;;;;;;;;;;;4994529;28;19994;-60
2022/03/27 01:25:47;;;;;;;;;;;;;;;;;;4997556;28;19937;-60
2022/03/27 01:28:13;;;;;;;;;;;;;;;;;;4987392;28;19926;-60
2022/03/27 01:30:39;;;;;;;;;;;;;;;;;;4991755;28;19925;-60
2022/03/27 01:33:05;;;;;;;;;;;;;;;;;;4994975;28;19988;-61
2022/03/27 01:35:32;;;;;;;;;;;;;;;;;;4996449;28;19933;-61
2022/03/27 01:38:00;;;;;;;;;;;;;;;;;;4993921;28;19926;-61
2022/03/27 01:40:27;;;;;;;;;;;;;;;;;;4984946;28;19934;-65
2022/03/27 01:42:55;;;;;;;;;;;;;;;;;;4992264;28;19961;-65
2022/03/27 01:45:22;;;;;;;;;;;;;;;;;;4994445;28;19960;-66
2022/03/27 01:47:48;;;;;;;;;;;;;;;;;;4987653;28;19925;-61
2022/03/27 01:50:14;;;;;;;;;;;;;;;;;;4993102;28;19933;-61
2022/03/27 01:52:41;;;;;;;;;;;;;;;;;;4997966;28;20032;-60
2022/03/27 01:55:07;;;;;;;;;;;;;;;;;;4998175;28;20016;-60
2022/03/27 01:57:33;;;;;;;;;;;;;;;;;;4993992;28;19925;-59
2022/03/27 01:59:59;;;;;;;;;;;;;;;;;;4997266;28;19937;-59
2022/03/27 02:02:26;;;;;;;;;;;;;;;;;;4988218;28;19926;-59
2022/03/27 02:04:52;;;;;;;;;;;;;;;;;;4983815;28;20073;-60
2022/03/27 02:07:22;;;;;;;;;;;;;;;;;;4992438;28;19930;-60
2022/03/27 02:09:48;;;;;;;;;;;;;;;;;;4990261;28;20013;-60
2022/03/27 02:12:14;;;;;;;;;;;;;;;;;;4984544;28;19930;-60
2022/03/27 02:14:40;;;;;;;;;;;;;;;;;;4993582;28;19941;-59
2022/03/27 02:17:07;;;;;;;;;;;;;;;;;;4995186;28;19929;-59
2022/03/27 02:19:43;;;;;;;;;;;;;;;;;;;;;
2022/03/27 02:22:10;;;;;;;;;;;;;;;;;;4992132;28;19933;-61
2022/03/27 02:24:36;;;;;;;;;;;;;;;;;;4995720;28;19934;-62
2022/03/27 02:27:02;;;;;;;;;;;;;;;;;;4994897;28;19957;-63
2022/03/27 02:29:28;;;;;;;;;;;;;;;;;;4996638;28;19966;-61
2022/03/27 02:31:55;;;;;;;;;;;;;;;;;;4987168;28;20011;-62
2022/03/27 02:34:21;;;;;;;;;;;;;;;;;;4987169;28;20421;-58
2022/03/27 02:36:47;;;;;;;;;;;;;;;;;;4992566;28;19930;-63
2022/03/27 02:39:20;;;;;;;;;;;;;;;;;;4996950;28;19937;-64
2022/03/27 02:41:46;;;;;;;;;;;;;;;;;;4989858;28;19966;-64
2022/03/27 02:44:13;;;;;;;;;;;;;;;;;;4992132;28;19929;-63
2022/03/27 02:46:39;;;;;;;;;;;;;;;;;;4994591;28;19969;-64
2022/03/27 02:49:05;;;;;;;;;;;;;;;;;;4990858;28;19926;-64
2022/03/27 02:51:34;;;;;;;;;;;;;;;;;;4988570;28;19933;-63
2022/03/27 02:54:00;;;;;;;;;;;;;;;;;;4994956;28;19930;-64
2022/03/27 02:56:26;;;;;;;;;;;;;;;;;;4994274;28;19929;-63
2022/03/27 02:58:53;;;;;;;;;;;;;;;;;;4991746;28;20012;-62
2022/03/27 03:01:22;;;;;;;;;;;;;;;;;;4996185;28;20016;-62
2022/03/27 03:03:48;;;;;;;;;;;;;;;;;;4996158;28;20233;-60
2022/03/27 03:06:15;;;;;;;;;;;;;;;;;;4984691;28;20390;-61
2022/03/27 03:08:41;;;;;;;;;;;;;;;;;;4990149;28;19957;-61
2022/03/27 03:11:08;;;;;;;;;;;;;;;;;;4990120;28;19938;-61
2022/03/27 03:13:34;;;;;;;;;;;;;;;;;;4994681;28;19925;-61
2022/03/27 03:16:00;;;;;;;;;;;;;;;;;;4995971;28;19974;-60
2022/03/27 03:18:26;;;;;;;;;;;;;;;;;;4991983;28;19941;-63
2022/03/27 03:20:55;;;;;;;;;;;;;;;;;;4991540;28;19961;-58
2022/03/27 03:23:22;;;;;;;;;;;;;;;;;;4985584;28;20321;-60
2022/03/27 03:25:49;;;;;;;;;;;;;;;;;;4992672;28;19970;-60
2022/03/27 03:28:15;;;;;;;;;;;;;;;;;;4987128;28;19946;-59
2022/03/27 03:30:41;;;;;;;;;;;;;;;;;;4980533;28;20421;-59
2022/03/27 03:33:07;;;;;;;;;;;;;;;;;;4983289;28;20440;-60
2022/03/27 03:35:34;;;;;;;;;;;;;;;;;;4989737;28;20542;-59
2022/03/27 03:38:00;;;;;;;;;;;;;;;;;;4992127;28;19956;-59
2022/03/27 03:40:29;;;;;;;;;;;;;;;;;;4994523;28;20007;-60
2022/03/27 03:42:55;;;;;;;;;;;;;;;;;;4988518;28;20334;-60
2022/03/27 03:45:21;;;;;;;;;;;;;;;;;;4987782;28;20095;-62
2022/03/27 03:47:48;;;;;;;;;;;;;;;;;;4989106;28;20396;-62
2022/03/27 03:50:14;;;;;;;;;;;;;;;;;;4990081;28;19947;-61
2022/03/27 03:52:40;;;;;;;;;;;;;;;;;;4989351;28;20118;-61
2022/03/27 03:55:06;;;;;;;;;;;;;;;;;;4988733;28;20413;-61
2022/03/27 03:57:33;;;;;;;;;;;;;;;;;;4985059;28;19957;-61
2022/03/27 03:59:59;;;;;;;;;;;;;;;;;;4991898;28;19946;-59
2022/03/27 04:02:34;;;;;;;;;;;;;;;;;;4987496;28;19972;-57
2022/03/27 04:05:01;;;;;;;;;;;;;;;;;;4987070;28;19946;-58
2022/03/27 04:07:27;;;;;;;;;;;;;;;;;;4988973;28;20055;-58
2022/03/27 04:09:53;;;;;;;;;;;;;;;;;;4992276;28;19967;-58
2022/03/27 04:12:32;;;;;;;;;;;;;;;;;;4992817;28;19949;-59
2022/03/27 04:14:58;;;;;;;;;;;;;;;;;;4992957;28;20070;-58
2022/03/27 04:17:27;;;;;;;;;;;;;;;;;;4990637;28;19938;-57
2022/03/27 04:19:53;;;;;;;;;;;;;;;;;;4993593;28;19972;-60
2022/03/27 04:22:32;;;;;;;;;;;;;;;;;;4988372;28;19983;-60
2022/03/27 04:25:03;;;;;;;;;;;;;;;;;;4985452;28;20037;-60
2022/03/27 04:27:29;;;;;;;;;;;;;;;;;;4996556;28;19956;-59
2022/03/27 04:29:55;;;;;;;;;;;;;;;;;;4996357;28;20042;-61
2022/03/27 04:32:21;;;;;;;;;;;;;;;;;;4989255;28;19991;-59
2022/03/27 04:34:50;;;;;;;;;;;;;;;;;;4995828;28;20026;-61
2022/03/27 04:37:16;;;;;;;;;;;;;;;;;;4989402;28;20381;-61
2022/03/27 04:39:42;;;;;;;;;;;;;;;;;;4996138;28;19945;-68
2022/03/27 04:42:09;;;;;;;;;;;;;;;;;;4982572;28;19962;-62
2022/03/27 04:44:35;;;;;;;;;;;;;;;;;;4994265;28;19972;-60
2022/03/27 04:47:05;;;;;;;;;;;;;;;;;;4989117;28;19926;-67
2022/03/27 04:49:31;;;;;;;;;;;;;;;;;;4993502;28;19959;-64
2022/03/27 04:51:58;;;;;;;;;;;;;;;;;;5006595;28;20121;-65
2022/03/27 04:54:24;;;;;;;;;;;;;;;;;;4995157;28;19966;-63
2022/03/27 04:56:50;;;;;;;;;;;;;;;;;;5001064;28;19981;-62
2022/03/27 04:59:16;;;;;;;;;;;;;;;;;;5000616;28;19950;-62
2022/03/27 05:01:42;;;;;;;;;;;;;;;;;;5003334;28;19981;-62
2022/03/27 05:04:10;;;;;;;;;;;;;;;;;;4999461;28;19972;-62
2022/03/27 05:06:36;;;;;;;;;;;;;;;;;;4994535;28;20410;-62
2022/03/27 05:09:06;;;;;;;;;;;;;;;;;;4995317;28;19949;-62
2022/03/27 05:11:32;;;;;;;;;;;;;;;;;;4989070;28;19937;-63
2022/03/27 05:13:58;;;;;;;;;;;;;;;;;;5004655;28;19985;-61
2022/03/27 05:16:24;;;;;;;;;;;;;;;;;;4996409;28;19953;-66
2022/03/27 05:18:50;;;;;;;;;;;;;;;;;;5004038;28;19953;-66
2022/03/27 05:21:16;;;;;;;;;;;;;;;;;;5000182;28;19952;-65
2022/03/27 05:23:44;;;;;;;;;;;;;;;;;;5006257;28;19960;-64
2022/03/27 05:26:10;;;;;;;;;;;;;;;;;;4995971;28;20462;-66
2022/03/27 05:28:36;;;;;;;;;;;;;;;;;;5003572;28;19947;-64
2022/03/27 05:31:08;;;;;;;;;;;;;;;;;;4997826;28;20022;-66
2022/03/27 05:33:35;;;;;;;;;;;;;;;;;;5001630;28;19954;-65
2022/03/27 05:36:03;;;;;;;;;;;;;;;;;;4993411;28;19943;-64
2022/03/27 05:38:29;;;;;;;;;;;;;;;;;;4992927;28;20052;-64
2022/03/27 05:40:55;;;;;;;;;;;;;;;;;;4981250;28;20038;-64
2022/03/27 05:43:23;;;;;;;;;;;;;;;;;;4984708;28;19934;-64
2022/03/27 05:45:49;;;;;;;;;;;;;;;;;;4987784;28;20027;-64
2022/03/27 05:48:17;;;;;;;;;;;;;;;;;;4983709;28;20062;-59
2022/03/27 05:50:44;;;;;;;;;;;;;;;;;;4989257;28;19950;-61
2022/03/27 05:53:10;;;;;;;;;;;;;;;;;;4990637;28;19947;-60
2022/03/27 05:55:39;;;;;;;;;;;;;;;;;;4991600;28;19966;-60
2022/03/27 05:58:05;;;;;;;;;;;;;;;;;;4996585;28;19944;-61
2022/03/27 06:00:31;;;;;;;;;;;;;;;;;;4992246;28;19956;-58
2022/03/27 06:03:01;;;;;;;;;;;;;;;;;;4997707;28;19986;-59
2022/03/27 06:05:27;;;;;;;;;;;;;;;;;;4994174;28;19972;-59
2022/03/27 06:07:53;;;;;;;;;;;;;;;;;;5001078;28;19958;-60
2022/03/27 06:10:25;;;;;;;;;;;;;;;;;;4995296;28;19967;-58
2022/03/27 06:12:51;;;;;;;;;;;;;;;;;;4996510;28;19937;-58
2022/03/27 06:15:17;;;;;;;;;;;;;;;;;;4990677;28;19977;-58
2022/03/27 06:17:44;;;;;;;;;;;;;;;;;;4996084;28;19936;-59
2022/03/27 06:20:12;;;;;;;;;;;;;;;;;;4989896;28;19947;-58
2022/03/27 06:22:39;;;;;;;;;;;;;;;;;;4998254;28;19960;-59
2022/03/27 06:25:07;;;;;;;;;;;;;;;;;;4993144;28;19996;-58
2022/03/27 06:27:33;;;;;;;;;;;;;;;;;;4991870;28;19949;-58
2022/03/27 06:29:59;;;;;;;;;;;;;;;;;;4989165;28;19965;-61
2022/03/27 06:32:27;;;;;;;;;;;;;;;;;;4990370;28;20054;-62
2022/03/27 06:34:53;;;;;;;;;;;;;;;;;;4988144;28;20018;-62
2022/03/27 06:37:19;;;;;;;;;;;;;;;;;;4996332;28;19945;-62
2022/03/27 06:39:45;;;;;;;;;;;;;;;;;;4997012;28;19943;-62
2022/03/27 06:42:12;;;;;;;;;;;;;;;;;;4990563;28;19964;-61
2022/03/27 06:44:38;;;;;;;;;;;;;;;;;;4985797;28;19967;-61
2022/03/27 06:47:06;;;;;;;;;;;;;;;;;;4990564;28;19945;-61
2022/03/27 06:49:32;;;;;;;;;;;;;;;;;;4995002;28;20046;-61
2022/03/27 06:54:32;;;;;;;;;;;;;;;;;;4991884;28;20316;-67
2022/03/27 06:56:59;;;;;;;;;;;;;;;;;;4991641;28;20303;-67
2022/03/27 06:59:25;;;;;;;;;;;;;;;;;;4993331;28;20331;-67
2022/03/27 07:04:35;;;;;;;;;;;;;;;;;;4996012;28;19963;-70
2022/03/27 07:07:01;;;;;;;;;;;;;;;;;;4992672;28;19957;-71
2022/03/27 07:09:27;;;;;;;;;;;;;;;;;;4998004;28;19972;-69
2022/03/27 07:11:53;;;;;;;;;;;;;;;;;;4995410;28;19956;-67
2022/03/27 07:14:19;;;;;;;;;;;;;;;;;;4994944;28;20445;-68
2022/03/27 07:16:45;;;;;;;;;;;;;;;;;;4995358;28;19959;-68
2022/03/27 07:19:14;;;;;;;;;;;;;;;;;;4997172;28;20334;-68
2022/03/27 07:21:41;;;;;;;;;;;;;;;;;;4995145;28;19989;-69
2022/03/27 07:24:08;;;;;;;;;;;;;;;;;;4995453;28;20086;-69
2022/03/27 07:26:35;;;;;;;;;;;;;;;;;;4993741;28;19956;-68
2022/03/27 07:29:02;;;;;;;;;;;;;;;;;;4996511;28;19969;-68
2022/03/27 07:31:28;;;;;;;;;;;;;;;;;;4983641;28;20057;-66
2022/03/27 07:33:55;;;;;;;;;;;;;;;;;;4991289;28;19993;-68
2022/03/27 07:36:21;;;;;;;;;;;;;;;;;;4992911;28;19979;-66
2022/03/27 07:38:47;;;;;;;;;;;;;;;;;;5004340;28;19961;-67
2022/03/27 07:41:14;;;;;;;;;;;;;;;;;;4999125;28;19960;-66
2022/03/27 07:43:40;;;;;;;;;;;;;;;;;;4996969;28;19987;-67
2022/03/27 07:46:06;;;;;;;;;;;;;;;;;;4985001;28;19951;-67
2022/03/27 07:48:32;;;;;;;;;;;;;;;;;;4989913;28;19966;-66
2022/03/27 07:50:58;;;;;;;;;;;;;;;;;;4993352;28;20013;-66
2022/03/27 07:53:24;;;;;;;;;;;;;;;;;;4997788;28;19985;-67
2022/03/27 07:55:51;;;;;;;;;;;;;;;;;;4991407;28;19978;-68
2022/03/27 07:58:17;;;;;;;;;;;;;;;;;;4996330;28;19970;-69
2022/03/27 08:00:43;;;;;;;;;;;;;;;;;;4996434;28;20503;-67
2022/03/27 08:03:09;;;;;;;;;;;;;;;;;;4995507;28;20318;-71
2022/03/27 08:05:35;;;;;;;;;;;;;;;;;;4991919;28;19985;-70
2022/03/27 08:08:02;;;;;;;;;;;;;;;;;;4993644;28;20346;-69
2022/03/27 08:10:28;;;;;;;;;;;;;;;;;;4995331;28;20353;-70
2022/03/27 08:12:54;;;;;;;;;;;;;;;;;;4997273;28;19973;-69
2022/03/27 08:15:20;;;;;;;;;;;;;;;;;;4993272;28;19980;-71
2022/03/27 08:17:46;;;;;;;;;;;;;;;;;;4991066;28;20057;-70
2022/03/27 08:20:13;;;;;;;;;;;;;;;;;;5000775;28;19952;-70
2022/03/27 08:22:39;;;;;;;;;;;;;;;;;;4996137;28;19968;-71
2022/03/27 08:25:05;;;;;;;;;;;;;;;;;;4992643;28;19984;-70
2022/03/27 08:27:30;;;;;;;;;;;;;;;;;;4994233;28;20421;-70
2022/03/27 08:29:56;;;;;;;;;;;;;;;;;;5000986;28;19948;-69
2022/03/27 08:32:22;;;;;;;;;;;;;;;;;;4994587;28;19964;-69
2022/03/27 08:34:48;;;;;;;;;;;;;;;;;;4996558;28;20345;-69
2022/03/27 08:37:15;;;;;;;;;;;;;;;;;;4999548;28;20430;-69
2022/03/27 08:39:41;;;;;;;;;;;;;;;;;;5003587;28;19939;-69
2022/03/27 08:42:07;;;;;;;;;;;;;;;;;;4989581;28;19956;-71
2022/03/27 08:44:34;;;;;;;;;;;;;;;;;;4986942;28;19960;-69
2022/03/27 08:47:00;;;;;;;;;;;;;;;;;;4986894;28;20032;-69
2022/03/27 08:49:26;;;;;;;;;;;;;;;;;;4979529;28;19976;-69
2022/03/27 08:51:53;;;;;;;;;;;;;;;;;;4986713;28;19945;-70
2022/03/27 08:54:19;;;;;;;;;;;;;;;;;;4987684;28;19976;-71
2022/03/27 08:56:45;;;;;;;;;;;;;;;;;;4986712;28;19939;-71
2022/03/27 08:59:11;;;;;;;;;;;;;;;;;;4982722;28;19967;-70
2022/03/27 09:01:37;;;;;;;;;;;;;;;;;;4982390;28;20041;-72
2022/03/27 09:04:03;;;;;;;;;;;;;;;;;;4987176;28;19956;-71
2022/03/27 09:06:30;;;;;;;;;;;;;;;;;;4983850;28;19954;-71
2022/03/27 09:08:56;;;;;;;;;;;;;;;;;;4984874;28;19947;-71
2022/03/27 09:11:22;;;;;;;;;;;;;;;;;;4983702;28;19945;-69
2022/03/27 09:13:48;;;;;;;;;;;;;;;;;;4990583;28;19962;-70
2022/03/27 09:16:14;;;;;;;;;;;;;;;;;;4989726;28;19952;-70
2022/03/27 09:18:41;;;;;;;;;;;;;;;;;;4984954;28;19940;-70
2022/03/27 09:21:07;;;;;;;;;;;;;;;;;;4990963;28;20026;-71
2022/03/27 09:23:35;;;;;;;;;;;;;;;;;;4991429;28;19957;-71
2022/03/27 09:26:01;;;;;;;;;;;;;;;;;;4987097;28;20020;-70
2022/03/27 09:28:28;;;;;;;;;;;;;;;;;;4984575;28;19944;-71
2022/03/27 09:30:54;;;;;;;;;;;;;;;;;;4991582;28;20051;-70
2022/03/27 09:33:20;;;;;;;;;;;;;;;;;;4994495;28;20192;-70
2022/03/27 09:35:47;;;;;;;;;;;;;;;;;;4994182;28;19986;-69
2022/03/27 09:38:13;;;;;;;;;;;;;;;;;;4995136;28;19965;-71
2022/03/27 09:40:40;;;;;;;;;;;;;;;;;;4994952;28;19955;-69
2022/03/27 09:43:06;;;;;;;;;;;;;;;;;;4995903;28;19971;-71
2022/03/27 09:45:32;;;;;;;;;;;;;;;;;;4994983;28;20443;-71
2022/03/27 09:47:58;;;;;;;;;;;;;;;;;;4984758;28;19953;-71
2022/03/27 09:50:24;;;;;;;;;;;;;;;;;;4994990;28;19953;-71
2022/03/27 09:52:50;;;;;;;;;;;;;;;;;;4996289;28;19962;-72
2022/03/27 09:55:16;;;;;;;;;;;;;;;;;;4995232;28;19979;-71
2022/03/27 09:57:43;;;;;;;;;;;;;;;;;;4996004;28;19966;-71
2022/03/27 10:00:09;;;;;;;;;;;;;;;;;;4995749;28;19971;-72
2022/03/27 10:02:35;;;;;;;;;;;;;;;;;;4995531;28;20402;-70
2022/03/27 10:05:01;;;;;;;;;;;;;;;;;;4982420;28;19969;-70
2022/03/27 10:07:27;;;;;;;;;;;;;;;;;;4995491;28;19967;-71
2022/03/27 10:09:53;;;;;;;;;;;;;;;;;;4981975;28;19951;-69
2022/03/27 10:12:21;;;;;;;;;;;;;;;;;;4993726;28;19929;-70
2022/03/27 10:14:48;;;;;;;;;;;;;;;;;;4995893;28;19959;-70
2022/03/27 10:17:14;;;;;;;;;;;;;;;;;;4985057;28;19943;-70
2022/03/27 10:19:40;;;;;;;;;;;;;;;;;;4991756;28;19967;-71
2022/03/27 10:22:06;;;;;;;;;;;;;;;;;;4994766;28;19941;-69
2022/03/27 10:24:32;;;;;;;;;;;;;;;;;;4995026;28;19926;-69
2022/03/27 10:26:58;;;;;;;;;;;;;;;;;;4994285;28;19955;-70
2022/03/27 10:29:25;;;;;;;;;;;;;;;;;;4994209;28;20037;-70
2022/03/27 10:31:52;;;;;;;;;;;;;;;;;;4981892;28;19940;-70
2022/03/27 10:34:19;;;;;;;;;;;;;;;;;;4993235;28;19960;-70
2022/03/27 10:36:45;;;;;;;;;;;;;;;;;;4987835;28;19930;-70
2022/03/27 10:39:11;;;;;;;;;;;;;;;;;;4988830;28;20302;-69
2022/03/27 10:41:37;;;;;;;;;;;;;;;;;;4989660;28;19964;-70
2022/03/27 10:44:03;;;;;;;;;;;;;;;;;;4990844;28;19968;-70
2022/03/27 10:46:30;;;;;;;;;;;;;;;;;;4992343;28;19929;-70
2022/03/27 10:48:56;;;;;;;;;;;;;;;;;;4990403;28;19964;-68
2022/03/27 10:51:22;;;;;;;;;;;;;;;;;;4992772;28;20455;-70
2022/03/27 10:53:49;;;;;;;;;;;;;;;;;;4992184;28;19926;-68
2022/03/27 10:56:15;;;;;;;;;;;;;;;;;;4990382;28;20019;-70
2022/03/27 10:58:41;;;;;;;;;;;;;;;;;;4986978;28;19926;-69
2022/03/27 11:01:07;;;;;;;;;;;;;;;;;;4990382;28;19925;-70
2022/03/27 11:03:33;;;;;;;;;;;;;;;;;;4991127;28;19925;-70
2022/03/27 11:06:00;;;;;;;;;;;;;;;;;;4991988;28;19949;-71
2022/03/27 11:08:26;;;;;;;;;;;;;;;;;;4991813;28;19936;-70
2022/03/27 11:10:54;;;;;;;;;;;;;;;;;;4993244;28;20212;-71
2022/03/27 11:13:20;;;;;;;;;;;;;;;;;;4992929;28;19984;-71
2022/03/27 11:15:47;;;;;;;;;;;;;;;;;;4990115;28;19925;-69
2022/03/27 11:18:13;;;;;;;;;;;;;;;;;;4990682;28;19933;-71
2022/03/27 11:20:39;;;;;;;;;;;;;;;;;;4992377;28;19926;-70
2022/03/27 11:23:08;;;;;;;;;;;;;;;;;;4991544;28;19941;-70
2022/03/27 11:25:34;;;;;;;;;;;;;;;;;;4991423;28;19925;-71
2022/03/27 11:28:01;;;;;;;;;;;;;;;;;;4987928;28;19934;-73
2022/03/27 11:30:27;;;;;;;;;;;;;;;;;;4983662;28;19934;-70
2022/03/27 11:32:53;;;;;;;;;;;;;;;;;;4985414;28;19934;-72
2022/03/27 11:35:19;;;;;;;;;;;;;;;;;;4973803;28;19926;-71
2022/03/27 11:37:45;;;;;;;;;;;;;;;;;;4988312;28;19945;-71
2022/03/27 11:40:11;;;;;;;;;;;;;;;;;;4987265;28;20421;-71
2022/03/27 11:42:38;;;;;;;;;;;;;;;;;;4985893;28;19925;-72
2022/03/27 11:45:10;;;;;;;;;;;;;;;;;;4984260;28;19972;-71
2022/03/27 11:47:36;;;;;;;;;;;;;;;;;;4990926;28;19944;-70
2022/03/27 11:50:02;;;;;;;;;;;;;;;;;;4987399;28;19926;-71
2022/03/27 11:52:28;;;;;;;;;;;;;;;;;;4984380;28;19937;-71
2022/03/27 11:54:55;;;;;;;;;;;;;;;;;;4982578;28;20315;-70
2022/03/27 11:57:21;;;;;;;;;;;;;;;;;;4987464;28;19934;-71
2022/03/27 11:59:47;;;;;;;;;;;;;;;;;;4991763;28;19926;-70
2022/03/27 12:02:13;;;;;;;;;;;;;;;;;;4987150;28;19932;-70
2022/03/27 12:04:39;;;;;;;;;;;;;;;;;;4984639;28;19933;-70
2022/03/27 12:07:05;;;;;;;;;;;;;;;;;;4984674;28;19949;-72
2022/03/27 12:09:31;;;;;;;;;;;;;;;;;;4992029;28;20017;-68
2022/03/27 12:11:58;;;;;;;;;;;;;;;;;;4991127;28;19925;-69
2022/03/27 12:14:24;;;;;;;;;;;;;;;;;;4990923;28;19966;-68
2022/03/27 12:16:50;;;;;;;;;;;;;;;;;;4984419;28;19933;-67
2022/03/27 12:19:17;;;;;;;;;;;;;;;;;;4988787;28;19972;-68
2022/03/27 12:21:43;;;;;;;;;;;;;;;;;;4991699;28;19937;-68
2022/03/27 12:24:09;;;;;;;;;;;;;;;;;;4991361;28;19948;-67
2022/03/27 12:32:03;;;;;;;;;;;;;;;;;;4991212;28;19925;-67
2022/03/27 12:34:29;;;;;;;;;;;;;;;;;;4991381;28;19926;-59
2022/03/27 12:36:55;;;;;;;;;;;;;;;;;;4991344;28;20401;-63
2022/03/27 12:39:24;;;;;;;;;;;;;;;;;;4987593;28;20208;-65
2022/03/27 12:41:50;;;;;;;;;;;;;;;;;;4991060;28;19925;-63
2022/03/27 12:44:16;;;;;;;;;;;;;;;;;;4991091;28;19933;-65
2022/03/27 12:46:42;;;;;;;;;;;;;;;;;;4990500;28;19956;-63
2022/03/27 12:49:10;;;;;;;;;;;;;;;;;;4989463;28;19933;-62
2022/03/27 12:51:36;;;;;;;;;;;;;;;;;;4988673;28;19933;-66
2022/03/27 12:54:02;;;;;;;;;;;;;;;;;;4999661;23;19930;-65
2022/03/27 12:56:29;;;;;;;;;;;;;;;;;;4986075;28;19937;-62
2022/03/27 12:58:55;;;;;;;;;;;;;;;;;;4981564;28;19925;-62
2022/03/27 13:01:22;;;;;;;;;;;;;;;;;;4981862;28;19937;-61
2022/03/27 13:03:48;;;;;;;;;;;;;;;;;;4984039;28;19926;-61
2022/03/27 13:06:14;;;;;;;;;;;;;;;;;;4986262;28;19930;-61
2022/03/27 13:08:40;;;;;;;;;;;;;;;;;;4987422;28;19930;-63
2022/03/27 13:11:07;;;;;;;;;;;;;;;;;;4974899;28;19927;-62
2022/03/27 13:13:33;;;;;;;;;;;;;;;;;;4992858;28;19952;-64
2022/03/27 13:15:59;;;;;;;;;;;;;;;;;;4975767;28;19942;-64
2022/03/27 13:18:25;;;;;;;;;;;;;;;;;;4976328;28;19926;-65
2022/03/27 13:20:51;;;;;;;;;;;;;;;;;;4986947;28;19937;-63
2022/03/27 13:23:18;;;;;;;;;;;;;;;;;;4986080;28;19926;-62
2022/03/27 13:25:44;;;;;;;;;;;;;;;;;;4985772;28;19926;-63
2022/03/27 13:28:10;;;;;;;;;;;;;;;;;;4988540;28;19933;-62
2022/03/27 13:30:36;;;;;;;;;;;;;;;;;;4981379;28;19945;-63
2022/03/27 13:33:03;;;;;;;;;;;;;;;;;;4984291;28;19926;-62
2022/03/27 13:35:29;;;;;;;;;;;;;;;;;;4984588;28;19929;-63
2022/03/27 13:37:55;;;;;;;;;;;;;;;;;;4984928;28;19926;-61
2022/03/27 13:40:21;;;;;;;;;;;;;;;;;;4990612;28;19930;-62
2022/03/27 13:42:58;;;;;;;;;;;;;;;;;;4991687;28;20368;-61
2022/03/27 13:45:25;;;;;;;;;;;;;;;;;;4983210;28;19937;-62
2022/03/27 13:47:51;;;;;;;;;;;;;;;;;;4985145;28;19930;-60
2022/03/27 13:50:17;;;;;;;;;;;;;;;;;;4980643;28;19937;-60
2022/03/27 13:52:43;;;;;;;;;;;;;;;;;;4979293;28;19933;-60
2022/03/27 13:55:09;;;;;;;;;;;;;;;;;;4992072;28;19946;-62
2022/03/27 13:57:35;;;;;;;;;;;;;;;;;;4637122;28;10000531;-62
2022/03/27 14:00:01;;;;;;;;;;;;;;;;;;4975236;28;20075;-59
2022/03/27 14:02:28;;;;;;;;;;;;;;;;;;4976016;28;19930;-66
2022/03/27 14:04:57;;;;;;;;;;;;;;;;;;4976867;28;20344;-68
2022/03/27 14:07:23;;;;;;;;;;;;;;;;;;4981553;28;19930;-70
2022/03/27 14:09:49;;;;;;;;;;;;;;;;;;4979142;28;19944;-69
2022/03/27 14:12:15;;;;;;;;;;;;;;;;;;4977076;28;20073;-69
2022/03/27 14:14:41;;;;;;;;;;;;;;;;;;4977206;28;19937;-69
2022/03/27 14:17:07;;;;;;;;;;;;;;;;;;4973988;28;19941;-68
2022/03/27 14:19:34;;;;;;;;;;;;;;;;;;4982719;28;19936;-69
2022/03/27 14:22:01;;;;;;;;;;;;;;;;;;4977415;28;19937;-71
2022/03/27 14:24:28;;;;;;;;;;;;;;;;;;4972542;28;19930;-70
2022/03/27 14:26:54;;;;;;;;;;;;;;;;;;4972619;28;19925;-71
2022/03/27 14:29:20;;;;;;;;;;;;;;;;;;4974506;28;20449;-71
2022/03/27 14:31:46;;;;;;;;;;;;;;;;;;4982240;28;19929;-70
2022/03/27 14:34:14;;;;;;;;;;;;;;;;;;4971645;28;19937;-68
2022/03/27 14:36:41;;;;;;;;;;;;;;;;;;4970543;28;20303;-70
2022/03/27 14:39:07;;;;;;;;;;;;;;;;;;4971063;28;19938;-70
2022/03/27 14:41:33;;;;;;;;;;;;;;;;;;4980062;28;19933;-71
2022/03/27 14:43:59;;;;;;;;;;;;;;;;;;4981793;28;19967;-70
2022/03/27 14:46:25;;;;;;;;;;;;;;;;;;4978875;28;20143;-70
2022/03/27 14:48:51;;;;;;;;;;;;;;;;;;4984279;28;19934;-71
2022/03/27 14:51:18;;;;;;;;;;;;;;;;;;4985708;28;19937;-71
2022/03/27 14:56:27;;;;;;;;;;;;;;;;;;4974531;28;19929;-70
2022/03/27 14:58:53;;;;;;;;;;;;;;;;;;4970260;28;19930;-68
2022/03/27 15:01:20;;;;;;;;;;;;;;;;;;4981684;28;19937;-70
2022/03/27 15:03:46;;;;;;;;;;;;;;;;;;4969582;28;19941;-71
2022/03/27 15:06:12;;;;;;;;;;;;;;;;;;4977488;28;20303;-70
2022/03/27 15:08:39;;;;;;;;;;;;;;;;;;4973259;28;19930;-71
2022/03/27 15:11:05;;;;;;;;;;;;;;;;;;4975435;28;19925;-71
2022/03/27 15:13:31;;;;;;;;;;;;;;;;;;4984190;28;19926;-72
2022/03/27 15:15:58;;;;;;;;;;;;;;;;;;4978605;28;19926;-70
2022/03/27 15:18:24;;;;;;;;;;;;;;;;;;4982067;28;20415;-69
2022/03/27 15:20:50;;;;;;;;;;;;;;;;;;4981457;28;19992;-70
2022/03/27 15:23:16;;;;;;;;;;;;;;;;;;4983909;28;20005;-70
2022/03/27 15:25:42;;;;;;;;;;;;;;;;;;4976198;28;19926;-70
2022/03/27 15:28:09;;;;;;;;;;;;;;;;;;4985065;28;19937;-71
2022/03/27 15:30:36;;;;;;;;;;;;;;;;;;4979065;28;20374;-70
2022/03/27 15:33:02;;;;;;;;;;;;;;;;;;4970254;28;20391;-71
2022/03/27 15:35:29;;;;;;;;;;;;;;;;;;4967218;28;20336;-71
2022/03/27 15:37:55;;;;;;;;;;;;;;;;;;4967735;28;19930;-71
2022/03/27 15:40:21;;;;;;;;;;;;;;;;;;4971908;28;19934;-73
2022/03/27 15:42:47;;;;;;;;;;;;;;;;;;4978682;28;19926;-69
2022/03/27 15:45:14;;;;;;;;;;;;;;;;;;4976625;28;19930;-69
2022/03/27 15:47:42;;;;;;;;;;;;;;;;;;4977852;28;19926;-69
2022/03/27 15:50:11;;;;;;;;;;;;;;;;;;4976369;28;19938;-70
2022/03/27 15:52:37;;;;;;;;;;;;;;;;;;4978034;28;19930;-69
2022/03/27 15:55:03;;;;;;;;;;;;;;;;;;4968525;28;20391;-69
2022/03/27 15:57:29;;;;;;;;;;;;;;;;;;4968614;28;20292;-71
2022/03/27 15:59:56;;;;;;;;;;;;;;;;;;4968506;28;20303;-70
2022/03/27 16:02:23;;;;;;;;;;;;;;;;;;4977790;28;20330;-70
2022/03/27 16:04:49;;;;;;;;;;;;;;;;;;4976400;28;20022;-69
2022/03/27 16:07:15;;;;;;;;;;;;;;;;;;4968416;28;19926;-69
2022/03/27 16:09:41;;;;;;;;;;;;;;;;;;4968324;28;19926;-69
2022/03/27 16:12:08;;;;;;;;;;;;;;;;;;4981523;28;19985;-70
2022/03/27 16:14:34;;;;;;;;;;;;;;;;;;4978674;28;20373;-70
2022/03/27 16:17:00;;;;;;;;;;;;;;;;;;4977144;28;19929;-70
2022/03/27 16:19:26;;;;;;;;;;;;;;;;;;4974251;28;19930;-70
2022/03/27 16:21:52;;;;;;;;;;;;;;;;;;4977662;28;20316;-69
2022/03/27 16:24:18;;;;;;;;;;;;;;;;;;4979749;28;19929;-70
2022/03/27 16:26:45;;;;;;;;;;;;;;;;;;4979252;28;20288;-70
2022/03/27 16:29:11;;;;;;;;;;;;;;;;;;4983241;28;20414;-70
2022/03/27 16:31:37;;;;;;;;;;;;;;;;;;4976281;28;19940;-70
2022/03/27 16:34:03;;;;;;;;;;;;;;;;;;4981470;28;20356;-69
2022/03/27 16:36:30;;;;;;;;;;;;;;;;;;4983309;28;20292;-70
2022/03/27 16:38:56;;;;;;;;;;;;;;;;;;4975722;28;19964;-69
2022/03/27 16:41:22;;;;;;;;;;;;;;;;;;4982629;28;19937;-70
2022/03/27 16:43:48;;;;;;;;;;;;;;;;;;4984585;28;19937;-69
2022/03/27 16:46:14;;;;;;;;;;;;;;;;;;4979704;28;19929;-69
2022/03/27 16:48:40;;;;;;;;;;;;;;;;;;4984621;28;20025;-70
2022/03/27 16:51:06;;;;;;;;;;;;;;;;;;4976899;28;20126;-70
2022/03/27 16:53:33;;;;;;;;;;;;;;;;;;4970667;28;19929;-71
2022/03/27 16:55:59;;;;;;;;;;;;;;;;;;4977950;28;20350;-71